createdAt,value
2022-10-21T00:00:35.186Z,13.00
2022-10-21T00:03:23.762Z,13.02
2022-10-21T00:05:51.990Z,13.75
2022-10-21T00:08:20.303Z,13.52
2022-10-21T00:10:52.487Z,13.20
2022-10-21T00:13:20.845Z,13.15
2022-10-21T00:16:18.151Z,12.68
2022-10-21T00:18:47.248Z,13.68
2022-10-21T00:21:17.797Z,13.73
2022-10-21T00:23:45.682Z,14.07
2022-10-21T00:26:14.262Z,14.30
2022-10-21T00:28:42.475Z,13.57
2022-10-21T00:31:12.564Z,15.00
2022-10-21T00:33:40.274Z,14.80
2022-10-21T00:36:08.319Z,14.85
2022-10-21T00:38:36.288Z,15.18
2022-10-21T00:41:03.706Z,15.68
2022-10-21T00:43:31.064Z,14.63
2022-10-21T00:46:07.957Z,15.77
2022-10-21T00:48:35.308Z,14.27
2022-10-21T00:51:13.130Z,14.38
2022-10-21T00:53:44.653Z,16.25
2022-10-21T00:56:20.384Z,15.57
2022-10-21T00:58:49.008Z,14.88
2022-10-21T01:01:19.244Z,16.27
2022-10-21T01:03:50.612Z,18.08
2022-10-21T01:06:21.855Z,16.33
2022-10-21T01:08:50.120Z,16.63
2022-10-21T01:11:19.641Z,16.30
2022-10-21T01:14:23.086Z,16.60
2022-10-21T01:16:56.228Z,17.10
2022-10-21T01:19:26.247Z,17.92
2022-10-21T01:22:06.712Z,17.50
2022-10-21T01:24:59.128Z,18.55
2022-10-21T01:30:36.086Z,18.70
2022-10-21T01:33:06.161Z,18.85
2022-10-21T01:35:57.732Z,19.20
2022-10-21T01:38:54.899Z,13.90
2022-10-21T01:41:28.480Z,17.73
2022-10-21T01:44:21.152Z,18.58
2022-10-21T01:47:02.340Z,17.73
2022-10-21T01:49:51.424Z,19.83
2022-10-21T01:52:19.127Z,17.73
2022-10-21T01:55:00.843Z,19.00
2022-10-21T01:57:35.378Z,17.88
2022-10-21T02:00:04.572Z,17.67
2022-10-21T02:02:37.426Z,17.63
2022-10-21T02:05:18.941Z,16.90
2022-10-21T02:07:47.456Z,16.45
2022-10-21T02:10:14.717Z,17.05
2022-10-21T02:12:45.818Z,17.10
2022-10-21T02:15:15.590Z,16.48
2022-10-21T02:17:54.413Z,16.25
2022-10-21T02:20:25.963Z,15.23
2022-10-21T02:22:53.527Z,15.05
2022-10-21T02:25:23.954Z,14.23
2022-10-21T02:27:52.315Z,15.30
2022-10-21T02:30:19.822Z,14.82
2022-10-21T02:32:56.196Z,13.73
2022-10-21T02:35:45.474Z,15.00
2022-10-21T02:38:30.475Z,16.65
2022-10-21T02:41:00.356Z,14.80
2022-10-21T02:43:32.249Z,15.15
2022-10-21T02:46:02.177Z,15.57
2022-10-21T02:48:33.755Z,15.38
2022-10-21T02:51:03.921Z,15.38
2022-10-21T02:53:31.620Z,14.55
2022-10-21T02:55:58.769Z,14.55
2022-10-21T02:58:26.348Z,15.20
2022-10-21T03:00:53.589Z,13.70
2022-10-21T03:03:21.253Z,14.23
2022-10-21T03:05:48.680Z,15.10
2022-10-21T03:08:16.546Z,13.15
2022-10-21T03:10:43.953Z,13.70
2022-10-21T03:13:11.296Z,14.40
2022-10-21T03:15:38.416Z,14.60
2022-10-21T03:18:05.744Z,14.05
2022-10-21T03:20:32.873Z,15.40
2022-10-21T03:23:00.239Z,14.50
2022-10-21T03:25:28.934Z,14.05
2022-10-21T03:27:59.211Z,15.45
2022-10-21T03:30:26.341Z,13.48
2022-10-21T03:32:53.709Z,13.88
2022-10-21T03:35:20.852Z,13.73
2022-10-21T03:37:48.309Z,14.32
2022-10-21T03:40:15.721Z,14.30
2022-10-21T03:42:43.090Z,13.48
2022-10-21T03:45:11.105Z,14.98
2022-10-21T03:47:38.553Z,14.32
2022-10-21T03:50:10.203Z,14.77
2022-10-21T03:52:40.864Z,15.52
2022-10-21T03:55:08.304Z,14.55
2022-10-21T03:57:35.740Z,15.57
2022-10-21T04:00:04.317Z,15.63
2022-10-21T04:02:40.754Z,14.68
2022-10-21T04:05:08.957Z,16.42
2022-10-21T04:07:36.372Z,15.98
2022-10-21T04:10:05.127Z,15.35
2022-10-21T04:12:32.589Z,14.80
2022-10-21T04:15:00.016Z,14.65
2022-10-21T04:17:28.141Z,15.25
2022-10-21T04:19:55.337Z,16.05
2022-10-21T04:22:22.697Z,15.07
2022-10-21T04:24:49.892Z,14.43
2022-10-21T04:27:17.239Z,14.90
2022-10-21T04:29:44.424Z,16.02
2022-10-21T04:32:11.927Z,14.27
2022-10-21T04:34:39.091Z,15.20
2022-10-21T04:37:06.513Z,13.80
2022-10-21T04:39:33.686Z,16.05
2022-10-21T04:42:01.173Z,15.52
2022-10-21T04:44:28.355Z,19.42
2022-10-21T04:46:56.346Z,18.92
2022-10-21T04:49:23.488Z,20.88
2022-10-21T04:51:50.891Z,20.00
2022-10-21T04:54:18.116Z,20.67
2022-10-21T04:56:45.487Z,20.50
2022-10-21T04:59:13.140Z,19.65
2022-10-21T05:01:40.589Z,16.77
2022-10-21T05:04:07.860Z,18.75
2022-10-21T05:06:35.262Z,17.02
2022-10-21T05:09:02.484Z,16.25
2022-10-21T05:11:30.622Z,16.33
2022-10-21T05:13:57.796Z,16.20
2022-10-21T05:16:25.213Z,16.58
2022-10-21T05:18:52.472Z,15.48
2022-10-21T05:21:19.794Z,15.90
2022-10-21T05:23:47.099Z,14.73
2022-10-21T05:26:14.479Z,15.35
2022-10-21T05:28:41.703Z,16.02
2022-10-21T05:31:09.076Z,16.52
2022-10-21T05:33:36.227Z,15.57
2022-10-21T05:36:07.837Z,14.35
2022-10-21T05:38:35.428Z,15.68
2022-10-21T05:41:03.461Z,15.60
2022-10-21T05:43:31.066Z,14.77
2022-10-21T05:45:58.839Z,14.43
2022-10-21T05:48:26.069Z,15.10
2022-10-21T05:50:54.916Z,16.55
2022-10-21T05:53:26.496Z,14.82
2022-10-21T05:56:00.635Z,15.75
2022-10-21T05:58:29.248Z,16.08
2022-10-21T06:00:57.470Z,14.50
2022-10-21T06:03:30.708Z,15.48
2022-10-21T06:06:00.016Z,14.80
2022-10-21T06:08:28.577Z,15.43
2022-10-21T06:11:11.098Z,15.95
2022-10-21T06:13:38.969Z,16.58
2022-10-21T06:16:08.015Z,15.45
2022-10-21T06:18:35.342Z,16.40
2022-10-21T06:21:02.768Z,16.40
2022-10-21T06:23:29.937Z,17.00
2022-10-21T06:26:03.008Z,16.95
2022-10-21T06:28:33.228Z,15.10
2022-10-21T06:31:00.823Z,14.85
2022-10-21T06:33:28.208Z,16.65
2022-10-21T06:35:56.247Z,17.48
2022-10-21T06:38:24.188Z,17.30
2022-10-21T06:40:51.772Z,16.38
2022-10-21T06:43:19.722Z,16.95
2022-10-21T06:45:47.148Z,17.02
2022-10-21T06:48:14.367Z,16.35
2022-10-21T06:50:41.717Z,15.65
2022-10-21T06:53:08.896Z,16.38
2022-10-21T06:55:36.284Z,15.35
2022-10-21T06:58:03.624Z,15.75
2022-10-21T07:03:03.096Z,17.02
2022-10-21T07:05:30.470Z,14.60
2022-10-21T07:07:57.702Z,15.95
2022-10-21T07:10:25.212Z,15.88
2022-10-21T07:12:52.519Z,15.38
2022-10-21T07:15:19.955Z,15.95
2022-10-21T07:17:47.098Z,14.73
2022-10-21T07:20:14.569Z,16.45
2022-10-21T07:22:41.693Z,15.02
2022-10-21T07:25:09.445Z,16.58
2022-10-21T07:27:36.838Z,15.65
2022-10-21T07:30:04.766Z,16.38
2022-10-21T07:32:31.903Z,15.60
2022-10-21T07:35:00.337Z,14.85
2022-10-21T07:37:27.482Z,13.40
2022-10-21T07:39:54.879Z,16.38
2022-10-21T07:42:22.418Z,16.08
2022-10-21T07:44:50.766Z,13.10
2022-10-21T07:47:17.919Z,15.88
2022-10-21T07:49:45.247Z,15.00
2022-10-21T07:52:12.397Z,15.50
2022-10-21T07:54:39.827Z,14.55
2022-10-21T07:57:06.982Z,15.02
2022-10-21T07:59:34.370Z,15.20
2022-10-21T08:02:01.544Z,14.43
2022-10-21T08:04:33.302Z,13.52
2022-10-21T08:07:00.500Z,15.77
2022-10-21T08:09:28.086Z,15.90
2022-10-21T08:11:55.588Z,15.40
2022-10-21T08:14:22.963Z,14.70
2022-10-21T08:16:54.668Z,15.90
2022-10-21T08:19:27.334Z,15.38
2022-10-21T08:21:54.894Z,16.65
2022-10-21T08:24:23.559Z,15.60
2022-10-21T08:26:51.572Z,15.75
2022-10-21T08:29:18.980Z,15.50
2022-10-21T08:31:46.486Z,14.60
2022-10-21T08:34:13.956Z,15.55
2022-10-21T08:36:41.556Z,14.77
2022-10-21T08:39:09.388Z,16.27
2022-10-21T08:41:46.771Z,16.15
2022-10-21T08:44:22.761Z,15.95
2022-10-21T08:47:31.059Z,16.38
2022-10-21T08:50:02.601Z,16.02
2022-10-21T08:52:41.429Z,12.45
2022-10-21T08:55:16.885Z,14.82
2022-10-21T08:57:44.264Z,14.55
2022-10-21T09:00:16.442Z,13.75
2022-10-21T09:05:38.626Z,14.40
2022-10-21T09:08:25.421Z,14.90
2022-10-21T09:11:15.653Z,14.63
2022-10-21T09:14:01.581Z,14.25
2022-10-21T09:17:13.361Z,14.73
2022-10-21T09:20:05.213Z,13.57
2022-10-21T09:22:56.251Z,12.07
2022-10-21T09:25:39.143Z,13.68
2022-10-21T09:28:15.310Z,13.27
2022-10-21T09:30:44.652Z,13.10
2022-10-21T09:33:21.971Z,13.23
2022-10-21T09:35:54.529Z,14.23
2022-10-21T09:38:45.323Z,13.40
2022-10-21T09:41:24.728Z,12.13
2022-10-21T09:43:52.389Z,13.73
2022-10-21T09:46:20.036Z,14.43
2022-10-21T09:51:40.437Z,13.85
2022-10-21T09:54:19.809Z,12.45
2022-10-21T09:56:54.788Z,13.02
2022-10-21T09:59:23.725Z,12.55
2022-10-21T10:01:51.697Z,12.40
2022-10-21T10:04:31.153Z,13.90
2022-10-21T10:07:01.385Z,13.00
2022-10-21T10:09:29.949Z,14.35
2022-10-21T10:12:14.706Z,13.85
2022-10-21T10:14:45.180Z,13.80
2022-10-21T10:17:35.657Z,14.68
2022-10-21T10:20:09.189Z,14.50
2022-10-21T10:22:41.925Z,14.68
2022-10-21T10:25:17.028Z,14.60
2022-10-21T10:28:09.319Z,14.85
2022-10-21T10:30:43.968Z,22.65
2022-10-21T10:33:31.311Z,14.93
2022-10-21T10:36:01.312Z,15.63
2022-10-21T10:38:36.065Z,13.90
2022-10-21T10:41:15.744Z,15.52
2022-10-21T10:43:45.567Z,14.90
2022-10-21T10:46:32.586Z,14.80
2022-10-21T10:49:07.275Z,14.60
2022-10-21T10:51:36.126Z,14.18
2022-10-21T10:54:06.636Z,14.27
2022-10-21T10:56:52.580Z,15.32
2022-10-21T10:59:29.102Z,13.93
2022-10-21T11:02:02.607Z,14.70
2022-10-21T11:04:46.617Z,14.00
2022-10-21T11:07:24.123Z,14.20
2022-10-21T11:09:56.919Z,15.43
2022-10-21T11:12:26.661Z,14.07
2022-10-21T11:14:57.246Z,14.50
2022-10-21T11:17:43.305Z,14.57
2022-10-21T11:20:27.181Z,14.52
2022-10-21T11:23:09.753Z,14.43
2022-10-21T11:25:43.986Z,16.10
2022-10-21T11:28:29.460Z,15.45
2022-10-21T11:31:21.577Z,14.98
2022-10-21T11:34:11.432Z,14.77
2022-10-21T11:37:27.702Z,14.65
2022-10-21T11:40:22.828Z,15.18
2022-10-21T11:42:52.491Z,13.77
2022-10-21T11:45:45.388Z,13.35
2022-10-21T11:48:32.355Z,14.15
2022-10-21T11:51:19.673Z,14.75
2022-10-21T11:54:04.872Z,13.85
2022-10-21T11:56:45.740Z,15.40
2022-10-21T11:59:50.177Z,15.65
2022-10-21T12:02:27.167Z,14.77
2022-10-21T12:05:07.663Z,17.20
2022-10-21T12:08:12.571Z,15.80
2022-10-21T12:10:53.121Z,14.38
2022-10-21T12:13:28.389Z,17.13
2022-10-21T12:16:00.325Z,16.25
2022-10-21T12:18:29.754Z,15.18
2022-10-21T12:20:58.867Z,15.80
2022-10-21T12:23:29.594Z,15.57
2022-10-21T12:25:58.526Z,15.85
2022-10-21T12:28:53.756Z,16.20
2022-10-21T12:31:32.818Z,17.42
2022-10-21T12:34:01.708Z,16.75
2022-10-21T12:36:49.501Z,18.92
2022-10-21T12:39:38.471Z,18.30
2022-10-21T12:42:13.687Z,19.45
2022-10-21T12:44:47.452Z,20.23
2022-10-21T12:47:26.069Z,17.95
2022-10-21T12:50:15.310Z,18.92
2022-10-21T12:52:45.259Z,20.13
2022-10-21T12:55:23.534Z,20.63
2022-10-21T12:58:00.937Z,21.20
2022-10-21T13:00:28.648Z,18.92
2022-10-21T13:03:00.631Z,19.95
2022-10-21T13:08:50.594Z,19.63
2022-10-21T13:11:24.870Z,21.55
2022-10-21T13:14:33.645Z,21.77
2022-10-21T13:17:21.697Z,19.60
2022-10-21T13:19:51.690Z,19.75
2022-10-21T13:22:40.483Z,19.02
2022-10-21T13:25:28.695Z,21.35
2022-10-21T13:28:06.124Z,19.42
2022-10-21T13:30:38.634Z,18.77
2022-10-21T13:33:29.931Z,18.25
2022-10-21T13:36:08.063Z,16.73
2022-10-21T13:38:45.424Z,18.20
2022-10-21T13:41:20.792Z,17.67
2022-10-21T13:43:59.199Z,16.77
2022-10-21T13:46:42.522Z,17.33
2022-10-21T13:49:32.791Z,17.83
2022-10-21T13:52:00.217Z,17.73
2022-10-21T13:54:34.921Z,17.90
2022-10-21T13:57:07.367Z,17.13
2022-10-21T13:59:35.020Z,18.27
2022-10-21T14:02:03.695Z,16.92
2022-10-21T14:04:33.956Z,16.33
2022-10-21T14:07:05.882Z,16.35
2022-10-21T14:09:44.386Z,17.45
2022-10-21T14:12:26.138Z,19.52
2022-10-21T14:14:55.938Z,19.45
2022-10-21T14:17:27.337Z,17.70
2022-10-21T14:20:02.649Z,18.40
2022-10-21T14:22:31.610Z,17.73
2022-10-21T14:25:02.400Z,17.42
2022-10-21T14:27:32.737Z,16.93
2022-10-21T14:30:03.719Z,20.35
2022-10-21T14:32:31.613Z,18.52
2022-10-21T14:35:21.380Z,19.75
2022-10-21T14:37:51.664Z,18.08
2022-10-21T14:40:32.619Z,20.23
2022-10-21T14:43:10.214Z,19.70
2022-10-21T14:45:45.709Z,20.27
2022-10-21T14:48:30.295Z,19.55
2022-10-21T14:51:00.927Z,18.70
2022-10-21T14:53:34.016Z,20.75
2022-10-21T14:56:04.841Z,18.35
2022-10-21T14:58:38.060Z,20.13
2022-10-21T15:01:18.603Z,19.75
2022-10-21T15:03:47.211Z,19.02
2022-10-21T15:06:37.669Z,20.42
2022-10-21T15:09:11.284Z,19.10
2022-10-21T15:11:41.845Z,18.38
2022-10-21T15:14:15.216Z,19.50
2022-10-21T15:16:54.215Z,19.63
2022-10-21T15:19:26.436Z,20.05
2022-10-21T15:21:59.846Z,19.75
2022-10-21T15:24:40.386Z,18.52
2022-10-21T15:27:14.576Z,19.77
2022-10-21T15:29:48.004Z,19.85
2022-10-21T15:32:19.187Z,20.42
2022-10-21T15:34:50.459Z,21.30
2022-10-21T15:37:17.697Z,20.60
2022-10-21T15:39:45.633Z,21.45
2022-10-21T15:42:16.482Z,20.13
2022-10-21T15:44:49.169Z,20.60
2022-10-21T15:47:16.848Z,18.60
2022-10-21T15:49:46.068Z,20.58
2022-10-21T15:52:16.951Z,18.60
2022-10-21T15:54:44.564Z,20.25
2022-10-21T15:57:20.752Z,20.90
2022-10-21T15:59:48.738Z,19.17
2022-10-21T16:02:17.936Z,20.52
2022-10-21T16:04:45.906Z,19.35
2022-10-21T16:07:19.417Z,18.63
2022-10-21T16:09:47.374Z,19.35
2022-10-21T16:12:16.463Z,18.98
2022-10-21T16:14:43.894Z,18.40
2022-10-21T16:17:12.317Z,18.45
2022-10-21T16:19:39.974Z,19.67
2022-10-21T16:22:14.320Z,19.73
2022-10-21T16:24:41.761Z,18.65
2022-10-21T16:27:12.848Z,18.65
2022-10-21T16:29:40.771Z,14.77
2022-10-21T16:32:12.182Z,18.60
2022-10-21T16:34:39.975Z,18.27
2022-10-21T16:37:40.066Z,20.92
2022-10-21T16:40:18.163Z,19.30
2022-10-21T16:42:45.345Z,18.95
2022-10-21T16:45:14.166Z,19.13
2022-10-21T16:47:48.292Z,19.15
2022-10-21T16:50:22.632Z,20.17
2022-10-21T16:52:50.376Z,20.02
2022-10-21T16:55:18.549Z,20.98
2022-10-21T16:57:45.743Z,20.75
2022-10-21T17:00:14.478Z,21.00
2022-10-21T17:02:45.791Z,20.08
2022-10-21T17:05:13.559Z,22.63
2022-10-21T17:07:41.349Z,21.65
2022-10-21T17:10:09.862Z,20.10
2022-10-21T17:12:37.132Z,21.15
2022-10-21T17:15:05.033Z,20.10
2022-10-21T17:17:32.426Z,21.77
2022-10-21T17:19:59.818Z,21.25
2022-10-21T17:22:27.005Z,19.70
2022-10-21T17:24:54.352Z,21.45
2022-10-21T17:27:21.716Z,21.73
2022-10-21T17:29:49.162Z,20.20
2022-10-21T17:32:17.434Z,20.25
2022-10-21T17:34:44.829Z,21.77
2022-10-21T17:37:12.470Z,20.90
2022-10-21T17:39:40.992Z,21.27
2022-10-21T17:42:09.760Z,20.95
2022-10-21T17:44:37.146Z,21.02
2022-10-21T17:47:04.350Z,20.52
2022-10-21T17:49:31.765Z,21.20
2022-10-21T17:51:59.013Z,21.75
2022-10-21T17:54:29.171Z,21.30
2022-10-21T17:56:56.883Z,20.52
2022-10-21T17:59:24.589Z,21.00
2022-10-21T18:01:51.817Z,20.73
2022-10-21T18:04:19.739Z,20.20
2022-10-21T18:06:47.093Z,20.90
2022-10-21T18:09:14.618Z,20.73
2022-10-21T18:11:41.916Z,22.35
2022-10-21T18:14:09.370Z,21.25
2022-10-21T18:16:36.644Z,21.77
2022-10-21T18:19:04.646Z,20.67
2022-10-21T18:21:31.962Z,22.23
2022-10-21T18:23:59.370Z,21.63
2022-10-21T18:26:29.452Z,21.33
2022-10-21T18:29:02.194Z,23.80
2022-10-21T18:31:33.567Z,21.77
2022-10-21T18:34:03.246Z,20.88
2022-10-21T18:36:31.295Z,24.10
2022-10-21T18:38:59.446Z,23.27
2022-10-21T18:41:27.704Z,23.05
2022-10-21T18:44:01.741Z,23.08
2022-10-21T18:46:29.831Z,21.98
2022-10-21T18:48:57.963Z,23.85
2022-10-21T18:51:25.518Z,22.30
2022-10-21T18:53:53.354Z,23.00
2022-10-21T18:56:22.428Z,21.58
2022-10-21T18:58:50.733Z,23.23
2022-10-21T19:01:19.722Z,21.55
2022-10-21T19:03:47.739Z,22.17
2022-10-21T19:06:38.242Z,23.08
2022-10-21T19:09:13.077Z,21.05
2022-10-21T19:11:41.425Z,23.02
2022-10-21T19:14:11.343Z,21.20
2022-10-21T19:16:42.547Z,23.80
2022-10-21T19:19:10.480Z,22.27
2022-10-21T19:21:38.006Z,23.27
2022-10-21T19:24:06.298Z,23.92
2022-10-21T19:26:35.800Z,25.73
2022-10-21T19:29:07.761Z,25.27
2022-10-21T19:31:36.439Z,25.02
2022-10-21T19:34:07.539Z,23.10
2022-10-21T19:36:34.804Z,26.35
2022-10-21T19:39:02.350Z,24.33
2022-10-21T19:41:29.534Z,24.40
2022-10-21T19:44:00.686Z,23.08
2022-10-21T19:46:30.866Z,25.80
2022-10-21T19:49:01.752Z,26.27
2022-10-21T19:51:29.079Z,26.50
2022-10-21T19:53:57.116Z,27.52
2022-10-21T19:56:28.615Z,28.67
2022-10-21T19:58:58.224Z,28.08
2022-10-21T20:01:26.477Z,28.05
2022-10-21T20:03:54.812Z,26.75
2022-10-21T20:06:30.898Z,26.05
2022-10-21T20:09:04.577Z,25.23
2022-10-21T20:11:32.232Z,25.13
2022-10-21T20:13:59.808Z,27.08
2022-10-21T20:16:39.408Z,26.83
2022-10-21T20:19:07.001Z,26.55
2022-10-21T20:21:36.577Z,27.42
2022-10-21T20:24:04.599Z,25.98
2022-10-21T20:26:31.952Z,27.05
2022-10-21T20:29:01.976Z,26.80
2022-10-21T20:31:29.397Z,26.23
2022-10-21T20:33:57.219Z,27.00
2022-10-21T20:36:27.067Z,28.80
2022-10-21T20:38:57.264Z,27.30
2022-10-21T20:41:34.422Z,28.13
2022-10-21T20:44:02.304Z,29.00
2022-10-21T20:46:32.552Z,27.10
2022-10-21T20:48:59.945Z,29.90
2022-10-21T20:51:31.992Z,29.63
2022-10-21T20:54:02.291Z,28.67
2022-10-21T20:56:32.822Z,30.40
2022-10-21T20:59:00.794Z,28.63
2022-10-21T21:01:33.889Z,30.52
2022-10-21T21:04:04.985Z,29.55
2022-10-21T21:06:37.456Z,28.90
2022-10-21T21:11:52.236Z,29.23
2022-10-21T21:14:19.702Z,30.73
2022-10-21T21:16:46.901Z,29.23
2022-10-21T21:19:14.684Z,29.13
2022-10-21T21:21:42.268Z,31.40
2022-10-21T21:24:09.711Z,30.63
2022-10-21T21:26:39.379Z,31.15
2022-10-21T21:29:08.983Z,30.67
2022-10-21T21:31:38.706Z,32.13
2022-10-21T21:34:06.923Z,30.02
2022-10-21T21:36:34.250Z,29.48
2022-10-21T21:39:01.841Z,29.92
2022-10-21T21:41:29.477Z,30.80
2022-10-21T21:43:57.013Z,30.35
2022-10-21T21:46:25.214Z,31.23
2022-10-21T21:49:02.264Z,30.10
2022-10-21T21:51:31.993Z,31.88
2022-10-21T21:53:59.543Z,30.70
2022-10-21T21:56:28.056Z,31.38
2022-10-21T21:58:57.858Z,32.25
2022-10-21T22:01:27.661Z,30.33
2022-10-21T22:03:56.394Z,31.13
2022-10-21T22:09:00.726Z,31.50
2022-10-21T22:11:31.233Z,33.17
2022-10-21T22:13:59.459Z,33.95
2022-10-21T22:16:30.375Z,32.85
2022-10-21T22:18:59.976Z,34.13
2022-10-21T22:21:28.235Z,32.72
2022-10-21T22:23:55.739Z,33.38
2022-10-21T22:26:23.422Z,33.60
2022-10-21T22:28:50.801Z,33.13
2022-10-21T22:31:18.796Z,33.70
2022-10-21T22:33:46.688Z,32.95
2022-10-21T22:36:16.475Z,33.08
2022-10-21T22:38:44.821Z,32.55
2022-10-21T22:41:12.818Z,33.20
2022-10-21T22:43:40.675Z,32.10
2022-10-21T22:46:29.294Z,32.45
2022-10-21T22:48:55.420Z,34.13
2022-10-21T22:51:22.676Z,33.72
2022-10-21T22:53:55.108Z,31.17
2022-10-21T22:56:27.929Z,33.53
2022-10-21T22:58:55.482Z,31.58
2022-10-21T23:01:24.150Z,31.50
2022-10-21T23:03:51.772Z,31.48
2022-10-21T23:06:18.952Z,29.73
2022-10-21T23:08:46.379Z,30.95
2022-10-21T23:11:13.597Z,32.85
2022-10-21T23:13:51.180Z,31.67
2022-10-21T23:16:28.203Z,31.75
2022-10-21T23:18:55.631Z,32.10
2022-10-21T23:21:22.797Z,29.25
2022-10-21T23:23:51.313Z,31.08
2022-10-21T23:26:18.611Z,31.85
2022-10-21T23:28:45.978Z,34.90
2022-10-21T23:31:13.422Z,33.72
2022-10-21T23:33:40.820Z,34.40
2022-10-21T23:36:08.197Z,33.45
2022-10-21T23:38:35.552Z,35.35
2022-10-21T23:41:02.736Z,35.05
2022-10-21T23:43:30.121Z,32.63
2022-10-21T23:45:57.317Z,34.05
2022-10-21T23:48:24.649Z,32.35
2022-10-21T23:50:51.812Z,33.45
2022-10-21T23:53:19.178Z,32.90
2022-10-21T23:55:46.341Z,32.20
2022-10-21T23:58:14.255Z,32.90
